Time,TemperatureF,DewpointF,PressureIn,WindDirection,WindDirectionDegrees,WindSpeedMPH,WindSpeedGustMPH,Humidity,HourlyPrecipIn,Conditions,Clouds,dailyrainin,SolarRadiationWatts/m^2,SoftwareType,DateUTC
2013-02-23 00:21:00,22.0,17.0,-100.00,SSW,194,1.0,2.0,80,-99.99,,,-99.99,0.110000,,2013-02-23 07:21:00,
2013-02-23 00:51:00,23.0,18.0,-100.00,NW,326,2.0,3.0,81,-99.99,,,-99.99,0.040000,,2013-02-23 07:51:00,
2013-02-23 01:01:00,23.0,18.0,-100.00,NW,326,2.0,3.0,81,-99.99,,,-99.99,0.040000,,2013-02-23 08:01:00,
2013-02-23 01:11:00,23.0,19.0,-100.00,South,171,0.0,1.0,83,-99.99,,,-99.99,0.040000,,2013-02-23 08:11:00,
2013-02-23 01:21:00,23.0,19.0,-100.00,South,171,0.0,1.0,83,-99.99,,,-99.99,0.040000,,2013-02-23 08:21:00,
2013-02-23 02:01:00,22.0,18.0,-100.00,NNE,16,2.0,3.0,83,-99.99,,,-99.99,0.110000,,2013-02-23 09:01:00,
2013-02-23 02:11:00,22.0,18.0,-100.00,NE,50,5.0,5.0,81,-99.99,,,-99.99,0.080000,,2013-02-23 09:11:00,
2013-02-23 02:21:00,24.0,18.0,-100.00,ESE,115,2.0,4.0,77,-99.99,,,-99.99,0.030000,,2013-02-23 09:21:00,
2013-02-23 02:30:00,23.0,17.0,-100.00,SSE,155,2.0,2.0,80,-99.99,,,-99.99,0.060000,,2013-02-23 09:30:00,
2013-02-23 02:31:00,24.0,18.0,-100.00,ESE,115,2.0,4.0,77,-99.99,,,-99.99,0.030000,,2013-02-23 09:31:00,
2013-02-23 03:01:00,23.0,17.0,-100.00,SSE,155,2.0,2.0,80,-99.99,,,-99.99,0.060000,,2013-02-23 10:01:00,
2013-02-23 03:11:00,23.0,17.0,-100.00,SSE,155,2.0,2.0,80,-99.99,,,-99.99,0.060000,,2013-02-23 10:11:00,
2013-02-23 03:21:00,23.0,17.0,-100.00,SSE,155,2.0,2.0,80,-99.99,,,-99.99,0.060000,,2013-02-23 10:21:00,
2013-02-23 04:32:00,25.0,20.0,-100.00,South,188,4.0,4.0,81,-99.99,,,-99.99,0.040000,,2013-02-23 11:32:00,
2013-02-23 04:41:00,25.0,20.0,-100.00,North,353,1.0,2.0,80,-99.99,,,-99.99,0.070000,,2013-02-23 11:41:00,
2013-02-23 04:52:00,25.0,20.0,-100.00,West,262,4.0,4.0,80,-99.99,,,-99.99,0.060000,,2013-02-23 11:52:00,
2013-02-23 05:01:00,26.0,21.0,-100.00,SSE,159,5.0,5.0,81,-99.99,,,-99.99,0.030000,,2013-02-23 12:01:00,
2013-02-23 05:11:00,26.0,21.0,-100.00,SSE,159,5.0,5.0,81,-99.99,,,-99.99,0.030000,,2013-02-23 12:11:00,
2013-02-23 05:21:00,26.0,21.0,-100.00,South,174,4.0,5.0,82,-99.99,,,-99.99,0.010000,,2013-02-23 12:21:00,
2013-02-23 05:32:00,25.0,21.0,-100.00,SE,137,5.0,6.0,83,-99.99,,,-99.99,0.020000,,2013-02-23 12:32:00,
2013-02-23 05:52:00,26.0,21.0,-100.00,SSE,157,4.0,5.0,80,-99.99,,,-99.99,0.050000,,2013-02-23 12:52:00,
2013-02-23 06:01:00,26.0,21.0,-100.00,South,173,4.0,5.0,80,-99.99,,,-99.99,0.030000,,2013-02-23 13:01:00,
2013-02-23 06:11:00,26.0,19.0,-100.00,South,177,7.0,10.0,73,-99.99,,,-99.99,0.020000,,2013-02-23 13:11:00,
2013-02-23 06:22:00,26.0,19.0,-100.00,South,177,7.0,10.0,73,-99.99,,,-99.99,0.020000,,2013-02-23 13:22:00,
2013-02-23 06:31:00,27.0,20.0,-100.00,South,181,5.0,6.0,71,-99.99,,,-99.99,0.010000,,2013-02-23 13:31:00,
2013-02-23 06:51:00,27.0,19.0,-100.00,ESE,108,3.0,4.0,71,-99.99,,,-99.99,0.010000,,2013-02-23 13:51:00,
2013-02-23 07:01:00,27.0,19.0,-100.00,ESE,108,3.0,4.0,71,-99.99,,,-99.99,0.010000,,2013-02-23 14:01:00,
2013-02-23 07:11:00,28.0,16.0,-100.00,East,94,11.0,13.0,60,-99.99,,,-99.99,0.050000,,2013-02-23 14:11:00,
2013-02-23 07:21:00,28.0,16.0,-100.00,East,94,11.0,13.0,60,-99.99,,,-99.99,0.050000,,2013-02-23 14:21:00,
2013-02-23 07:32:00,27.0,19.0,-100.00,ESE,118,6.0,12.0,69,-99.99,,,-99.99,1.570000,,2013-02-23 14:32:00,
2013-02-23 08:11:00,27.0,17.0,-100.00,South,181,8.0,11.0,63,-99.99,,,-99.99,26.190001,,2013-02-23 15:11:00,
2013-02-23 08:21:00,27.0,17.0,-100.00,South,181,8.0,11.0,63,-99.99,,,-99.99,26.190001,,2013-02-23 15:21:00,
2013-02-23 08:31:00,27.0,18.0,-100.00,ESE,108,2.0,7.0,66,-99.99,,,-99.99,33.209999,,2013-02-23 15:31:00,
2013-02-23 08:51:00,29.0,21.0,-100.00,SE,132,6.0,7.0,70,-99.99,,,-99.99,265.299988,,2013-02-23 15:51:00,
2013-02-23 09:01:00,31.0,20.0,-100.00,SE,138,6.0,7.0,64,-99.99,,,-99.99,292.000000,,2013-02-23 16:01:00,
2013-02-23 09:11:00,33.0,19.0,-100.00,ESE,103,4.0,6.0,57,-99.99,,,-99.99,393.899994,,2013-02-23 16:11:00,
2013-02-23 09:21:00,33.0,19.0,-100.00,ESE,103,4.0,6.0,57,-99.99,,,-99.99,393.899994,,2013-02-23 16:21:00,
2013-02-23 09:31:00,33.0,18.0,-100.00,East,80,2.0,4.0,53,-99.99,,,-99.99,140.199997,,2013-02-23 16:31:00,
2013-02-23 09:42:00,32.0,18.0,-100.00,East,93,6.0,7.0,54,-99.99,,,-99.99,123.400002,,2013-02-23 16:42:00,
2013-02-23 09:51:00,31.0,18.0,-100.00,ESE,111,5.0,12.0,59,-99.99,,,-99.99,38.590000,,2013-02-23 16:51:00,
2013-02-23 10:01:00,31.0,18.0,-100.00,ESE,111,5.0,12.0,59,-99.99,,,-99.99,38.590000,,2013-02-23 17:01:00,
2013-02-23 10:11:00,34.0,19.0,-100.00,East,92,2.0,4.0,53,-99.99,,,-99.99,412.000000,,2013-02-23 17:11:00,
2013-02-23 10:52:00,33.0,20.0,-100.00,NW,304,10.0,12.0,58,-99.99,,,-99.99,51.230000,,2013-02-23 17:52:00,
2013-02-23 11:01:00,33.0,20.0,-100.00,NW,304,10.0,12.0,58,-99.99,,,-99.99,51.230000,,2013-02-23 18:01:00,
2013-02-23 11:12:00,33.0,24.0,-100.00,WNW,284,13.0,25.0,68,-99.99,,,-99.99,59.630001,,2013-02-23 18:12:00,
2013-02-23 11:21:00,31.0,28.0,-100.00,West,267,4.0,10.0,88,-99.99,,,-99.99,112.800003,,2013-02-23 18:21:00,
2013-02-23 11:31:00,31.0,28.0,-100.00,WSW,250,7.0,10.0,88,-99.99,,,-99.99,89.199997,,2013-02-23 18:31:00,
2013-02-23 11:41:00,31.0,28.0,-100.00,SW,234,6.0,9.0,89,-99.99,,,-99.99,121.900002,,2013-02-23 18:41:00,
2013-02-23 11:51:00,32.0,29.0,-100.00,West,259,6.0,8.0,89,-99.99,,,-99.99,246.000000,,2013-02-23 18:51:00,
2013-02-23 12:01:00,32.0,28.0,-100.00,West,269,9.0,12.0,84,-99.99,,,-99.99,238.500000,,2013-02-23 19:01:00,
2013-02-23 12:11:00,32.0,28.0,-100.00,West,269,9.0,12.0,84,-99.99,,,-99.99,238.500000,,2013-02-23 19:11:00,
2013-02-23 12:21:00,31.0,27.0,-100.00,West,274,16.0,19.0,82,-99.99,,,-99.99,174.100006,,2013-02-23 19:21:00,
2013-02-23 12:32:00,31.0,27.0,-100.00,West,274,16.0,19.0,82,-99.99,,,-99.99,174.100006,,2013-02-23 19:32:00,
2013-02-23 12:41:00,30.0,25.0,-100.00,WNW,288,21.0,26.0,80,-99.99,,,-99.99,161.500000,,2013-02-23 19:41:00,
2013-02-23 12:51:00,30.0,25.0,-100.00,WNW,288,21.0,26.0,80,-99.99,,,-99.99,161.500000,,2013-02-23 19:51:00,
2013-02-23 13:01:00,28.0,24.0,-100.00,WNW,287,22.0,31.0,87,-99.99,,,-99.99,166.600006,,2013-02-23 20:01:00,
2013-02-23 13:11:00,28.0,24.0,-100.00,WNW,287,22.0,31.0,87,-99.99,,,-99.99,166.600006,,2013-02-23 20:11:00,
2013-02-23 13:21:00,27.0,22.0,-100.00,WNW,288,29.0,36.0,78,-99.99,,,-99.99,188.800003,,2013-02-23 20:21:00,
2013-02-23 13:31:00,29.0,17.0,-100.00,WNW,291,17.0,24.0,61,-99.99,,,-99.99,191.500000,,2013-02-23 20:31:00,
2013-02-23 13:41:00,29.0,17.0,-100.00,WNW,291,17.0,24.0,61,-99.99,,,-99.99,191.500000,,2013-02-23 20:41:00,
2013-02-23 13:52:00,31.0,18.0,-100.00,WNW,292,14.0,20.0,57,-99.99,,,-99.99,252.600006,,2013-02-23 20:52:00,
2013-02-23 14:11:00,31.0,16.0,-100.00,WNW,283,18.0,25.0,54,-99.99,,,-99.99,264.299988,,2013-02-23 21:11:00,
2013-02-23 14:22:00,31.0,16.0,-100.00,WNW,283,18.0,25.0,54,-99.99,,,-99.99,264.299988,,2013-02-23 21:22:00,
2013-02-23 14:31:00,32.0,19.0,-100.00,West,281,15.0,22.0,57,-99.99,,,-99.99,496.500000,,2013-02-23 21:31:00,
2013-02-23 14:41:00,32.0,19.0,-100.00,West,281,15.0,22.0,57,-99.99,,,-99.99,496.500000,,2013-02-23 21:41:00,
2013-02-23 14:51:00,31.0,17.0,-100.00,WNW,290,14.0,16.0,54,-99.99,,,-99.99,306.700012,,2013-02-23 21:51:00,
2013-02-23 15:01:00,31.0,17.0,-100.00,WNW,290,14.0,16.0,54,-99.99,,,-99.99,306.700012,,2013-02-23 22:01:00,
2013-02-23 15:11:00,31.0,18.0,-100.00,West,280,15.0,17.0,56,-99.99,,,-99.99,240.000000,,2013-02-23 22:11:00,
2013-02-23 15:21:00,31.0,18.0,-100.00,West,280,15.0,17.0,56,-99.99,,,-99.99,240.000000,,2013-02-23 22:21:00,
2013-02-23 15:31:00,31.0,16.0,-100.00,WNW,285,15.0,18.0,52,-99.99,,,-99.99,248.399994,,2013-02-23 22:31:00,
2013-02-23 15:51:00,32.0,16.0,-100.00,WNW,296,15.0,21.0,50,-99.99,,,-99.99,390.100006,,2013-02-23 22:51:00,
2013-02-23 16:11:00,32.0,16.0,-100.00,NW,306,14.0,23.0,51,-99.99,,,-99.99,204.300003,,2013-02-23 23:11:00,
2013-02-23 16:51:00,32.0,14.0,-100.00,West,280,18.0,23.0,45,-99.99,,,-99.99,274.399994,,2013-02-23 23:51:00,
2013-02-23 17:11:00,32.0,13.0,-100.00,WNW,288,20.0,23.0,44,-99.99,,,-99.99,260.500000,,2013-02-24 00:11:00,
2013-02-23 17:42:00,32.0,14.0,-100.00,WNW,290,15.0,18.0,46,-99.99,,,-99.99,244.199997,,2013-02-24 00:42:00,
2013-02-23 17:51:00,30.0,14.0,-100.00,WNW,293,14.0,19.0,51,-99.99,,,-99.99,70.260002,,2013-02-24 00:51:00,
2013-02-23 18:01:00,30.0,14.0,-100.00,WNW,293,14.0,19.0,51,-99.99,,,-99.99,70.260002,,2013-02-24 01:01:00,
2013-02-23 18:11:00,28.0,16.0,-100.00,NW,306,13.0,18.0,59,-99.99,,,-99.99,39.950001,,2013-02-24 01:11:00,
2013-02-23 18:31:00,29.0,15.0,-100.00,NW,321,15.0,22.0,56,-99.99,,,-99.99,15.020000,,2013-02-24 01:31:00,
2013-02-23 19:11:00,27.0,18.0,-100.00,NNW,334,12.0,15.0,70,-99.99,,,-99.99,0.000000,,2013-02-24 02:11:00,
2013-02-23 19:21:00,27.0,18.0,-100.00,NNW,334,12.0,15.0,70,-99.99,,,-99.99,0.000000,,2013-02-24 02:21:00,
2013-02-23 19:31:00,26.0,18.0,-100.00,NW,315,12.0,16.0,69,-99.99,,,-99.99,0.000000,,2013-02-24 02:31:00,
2013-02-23 19:51:00,26.0,18.0,-100.00,NNW,330,8.0,10.0,71,-99.99,,,-99.99,0.010000,,2013-02-24 02:51:00,
2013-02-23 20:31:00,25.0,17.0,-100.00,WNW,303,5.0,8.0,71,-99.99,,,-99.99,0.100000,,2013-02-24 03:31:00,
2013-02-23 20:42:00,25.0,17.0,-100.00,WNW,303,5.0,8.0,71,-99.99,,,-99.99,0.100000,,2013-02-24 03:42:00,
2013-02-23 20:52:00,24.0,16.0,-100.00,West,278,5.0,6.0,72,-99.99,,,-99.99,0.110000,,2013-02-24 03:52:00,
2013-02-23 21:21:00,24.0,17.0,-100.00,West,281,5.0,7.0,74,-99.99,,,-99.99,0.070000,,2013-02-24 04:21:00,
2013-02-23 21:31:00,25.0,18.0,-100.00,West,273,14.0,17.0,73,-99.99,,,-99.99,0.020000,,2013-02-24 04:31:00,
2013-02-23 21:41:00,25.0,18.0,-100.00,West,273,14.0,17.0,73,-99.99,,,-99.99,0.020000,,2013-02-24 04:41:00,
2013-02-23 22:11:00,24.0,17.0,-100.00,NW,314,6.0,9.0,73,-99.99,,,-99.99,0.100000,,2013-02-24 05:11:00,
2013-02-23 22:21:00,24.0,17.0,-100.00,NW,314,6.0,9.0,73,-99.99,,,-99.99,0.100000,,2013-02-24 05:21:00,
2013-02-23 22:41:00,25.0,17.0,-100.00,NW,309,5.0,8.0,73,-99.99,,,-99.99,0.050000,,2013-02-24 05:41:00,
2013-02-23 23:01:00,25.0,18.0,-100.00,WNW,282,9.0,13.0,74,-99.99,,,-99.99,0.040000,,2013-02-24 06:01:00,
2013-02-23 23:11:00,25.0,17.0,-100.00,West,281,11.0,14.0,72,-99.99,,,-99.99,0.080000,,2013-02-24 06:11:00,
2013-02-23 23:21:00,25.0,17.0,-100.00,West,281,11.0,14.0,72,-99.99,,,-99.99,0.080000,,2013-02-24 06:21:00,
2013-02-23 23:31:00,24.0,18.0,-100.00,West,281,12.0,15.0,75,-99.99,,,-99.99,0.070000,,2013-02-24 06:31:00,
2013-02-23 23:41:00,25.0,19.0,-100.00,West,276,10.0,14.0,77,-99.99,,,-99.99,0.060000,,2013-02-24 06:41:00,
2013-02-23 23:52:00,24.0,19.0,-100.00,WNW,286,13.0,16.0,78,-99.99,,,-99.99,0.040000,,2013-02-24 06:52:00,